sensor_id;sensor_type;location;lat;lon;timestamp;temperature;humidity
33863;DHT22;20158;51.436;-2.742;2023-10-13T00:02:10;17.20;81.20
33863;DHT22;20158;51.436;-2.742;2023-10-13T00:04:36;17.20;81.20
33863;DHT22;20158;51.436;-2.742;2023-10-13T00:07:03;17.20;81.20
33863;DHT22;20158;51.436;-2.742;2023-10-13T00:09:30;17.20;81.30
33863;DHT22;20158;51.436;-2.742;2023-10-13T00:12:04;17.20;81.30
33863;DHT22;20158;51.436;-2.742;2023-10-13T00:14:30;17.30;81.50
33863;DHT22;20158;51.436;-2.742;2023-10-13T00:17:06;17.30;81.60
33863;DHT22;20158;51.436;-2.742;2023-10-13T00:19:41;17.20;81.50
33863;DHT22;20158;51.436;-2.742;2023-10-13T00:22:18;17.30;81.60
33863;DHT22;20158;51.436;-2.742;2023-10-13T00:24:45;17.30;81.60
33863;DHT22;20158;51.436;-2.742;2023-10-13T00:27:19;17.30;82.20
33863;DHT22;20158;51.436;-2.742;2023-10-13T00:30:08;17.30;81.80
33863;DHT22;20158;51.436;-2.742;2023-10-13T00:32:47;17.30;81.70
33863;DHT22;20158;51.436;-2.742;2023-10-13T00:35:18;17.30;81.70
33863;DHT22;20158;51.436;-2.742;2023-10-13T00:38:13;17.40;81.90
33863;DHT22;20158;51.436;-2.742;2023-10-13T00:40:43;17.40;81.90
33863;DHT22;20158;51.436;-2.742;2023-10-13T00:43:10;17.40;82.00
33863;DHT22;20158;51.436;-2.742;2023-10-13T00:45:47;17.40;82.00
33863;DHT22;20158;51.436;-2.742;2023-10-13T00:48:35;17.40;82.10
33863;DHT22;20158;51.436;-2.742;2023-10-13T00:51:08;17.40;82.20
33863;DHT22;20158;51.436;-2.742;2023-10-13T00:53:40;17.40;82.10
33863;DHT22;20158;51.436;-2.742;2023-10-13T00:56:07;17.40;82.10
33863;DHT22;20158;51.436;-2.742;2023-10-13T00:58:35;17.40;82.20
33863;DHT22;20158;51.436;-2.742;2023-10-13T01:01:04;17.40;82.20
33863;DHT22;20158;51.436;-2.742;2023-10-13T01:03:55;17.40;82.30
33863;DHT22;20158;51.436;-2.742;2023-10-13T01:06:22;17.40;82.30
33863;DHT22;20158;51.436;-2.742;2023-10-13T01:09:09;17.40;82.40
33863;DHT22;20158;51.436;-2.742;2023-10-13T01:11:46;17.40;82.40
33863;DHT22;20158;51.436;-2.742;2023-10-13T01:14:15;17.40;82.40
33863;DHT22;20158;51.436;-2.742;2023-10-13T01:16:44;17.40;82.50
33863;DHT22;20158;51.436;-2.742;2023-10-13T01:19:14;17.40;82.50
33863;DHT22;20158;51.436;-2.742;2023-10-13T01:21:45;17.40;82.60
33863;DHT22;20158;51.436;-2.742;2023-10-13T01:24:11;17.40;82.60
33863;DHT22;20158;51.436;-2.742;2023-10-13T01:26:40;17.40;82.60
33863;DHT22;20158;51.436;-2.742;2023-10-13T01:29:08;17.40;82.60
33863;DHT22;20158;51.436;-2.742;2023-10-13T01:31:44;17.40;82.70
33863;DHT22;20158;51.436;-2.742;2023-10-13T01:34:15;17.40;82.70
33863;DHT22;20158;51.436;-2.742;2023-10-13T01:36:54;17.40;82.70
33863;DHT22;20158;51.436;-2.742;2023-10-13T01:39:22;17.40;82.70
33863;DHT22;20158;51.436;-2.742;2023-10-13T01:41:53;17.40;82.70
33863;DHT22;20158;51.436;-2.742;2023-10-13T01:44:26;17.40;82.70
33863;DHT22;20158;51.436;-2.742;2023-10-13T01:46:57;17.40;82.80
33863;DHT22;20158;51.436;-2.742;2023-10-13T01:49:33;17.40;82.70
33863;DHT22;20158;51.436;-2.742;2023-10-13T01:52:09;17.40;82.70
33863;DHT22;20158;51.436;-2.742;2023-10-13T01:54:48;17.40;82.70
33863;DHT22;20158;51.436;-2.742;2023-10-13T01:57:17;17.40;82.80
33863;DHT22;20158;51.436;-2.742;2023-10-13T01:59:44;17.40;82.70
33863;DHT22;20158;51.436;-2.742;2023-10-13T02:02:11;17.40;82.80
33863;DHT22;20158;51.436;-2.742;2023-10-13T02:04:41;17.40;82.80
33863;DHT22;20158;51.436;-2.742;2023-10-13T02:07:08;17.40;82.80
33863;DHT22;20158;51.436;-2.742;2023-10-13T02:09:34;17.40;82.80
33863;DHT22;20158;51.436;-2.742;2023-10-13T02:12:02;17.40;82.80
33863;DHT22;20158;51.436;-2.742;2023-10-13T02:14:29;17.40;82.80
33863;DHT22;20158;51.436;-2.742;2023-10-13T02:16:55;17.40;82.80
33863;DHT22;20158;51.436;-2.742;2023-10-13T02:19:38;17.40;82.90
33863;DHT22;20158;51.436;-2.742;2023-10-13T02:22:09;17.40;82.90
33863;DHT22;20158;51.436;-2.742;2023-10-13T02:24:36;17.40;82.80
33863;DHT22;20158;51.436;-2.742;2023-10-13T02:27:09;17.40;82.80
33863;DHT22;20158;51.436;-2.742;2023-10-13T02:29:41;17.40;82.80
33863;DHT22;20158;51.436;-2.742;2023-10-13T02:32:07;17.40;82.80
33863;DHT22;20158;51.436;-2.742;2023-10-13T02:34:44;17.40;82.80
33863;DHT22;20158;51.436;-2.742;2023-10-13T02:37:11;17.40;82.80
33863;DHT22;20158;51.436;-2.742;2023-10-13T02:39:40;17.40;83.30
33863;DHT22;20158;51.436;-2.742;2023-10-13T02:42:09;17.40;82.80
33863;DHT22;20158;51.436;-2.742;2023-10-13T02:44:41;17.50;82.90
33863;DHT22;20158;51.436;-2.742;2023-10-13T02:47:11;17.40;82.80
33863;DHT22;20158;51.436;-2.742;2023-10-13T02:49:41;17.50;82.90
33863;DHT22;20158;51.436;-2.742;2023-10-13T02:52:12;17.50;82.90
33863;DHT22;20158;51.436;-2.742;2023-10-13T02:54:39;17.50;83.00
33863;DHT22;20158;51.436;-2.742;2023-10-13T02:57:08;17.50;83.00
33863;DHT22;20158;51.436;-2.742;2023-10-13T02:59:34;17.60;83.20
33863;DHT22;20158;51.436;-2.742;2023-10-13T03:02:03;17.60;83.20
33863;DHT22;20158;51.436;-2.742;2023-10-13T03:04:49;17.60;83.20
33863;DHT22;20158;51.436;-2.742;2023-10-13T03:07:16;17.60;83.20
33863;DHT22;20158;51.436;-2.742;2023-10-13T03:09:48;17.60;83.30
33863;DHT22;20158;51.436;-2.742;2023-10-13T03:12:18;17.60;83.30
33863;DHT22;20158;51.436;-2.742;2023-10-13T03:14:44;17.70;83.50
33863;DHT22;20158;51.436;-2.742;2023-10-13T03:17:14;17.70;83.50
33863;DHT22;20158;51.436;-2.742;2023-10-13T03:19:43;17.70;83.60
33863;DHT22;20158;51.436;-2.742;2023-10-13T03:22:16;17.70;83.60
33863;DHT22;20158;51.436;-2.742;2023-10-13T03:24:43;17.70;83.60
33863;DHT22;20158;51.436;-2.742;2023-10-13T03:27:13;17.70;83.70
33863;DHT22;20158;51.436;-2.742;2023-10-13T03:29:44;17.70;83.70
33863;DHT22;20158;51.436;-2.742;2023-10-13T03:32:13;17.70;83.80
33863;DHT22;20158;51.436;-2.742;2023-10-13T03:34:45;17.80;84.00
33863;DHT22;20158;51.436;-2.742;2023-10-13T03:37:27;17.70;83.90
33863;DHT22;20158;51.436;-2.742;2023-10-13T03:40:06;17.70;83.90
33863;DHT22;20158;51.436;-2.742;2023-10-13T03:42:34;17.80;84.10
33863;DHT22;20158;51.436;-2.742;2023-10-13T03:45:00;17.80;84.10
33863;DHT22;20158;51.436;-2.742;2023-10-13T03:47:27;17.80;84.10
33863;DHT22;20158;51.436;-2.742;2023-10-13T03:49:58;17.80;84.10
33863;DHT22;20158;51.436;-2.742;2023-10-13T03:52:42;17.80;84.10
33863;DHT22;20158;51.436;-2.742;2023-10-13T03:55:08;17.90;84.30
33863;DHT22;20158;51.436;-2.742;2023-10-13T03:57:45;17.80;84.20
33863;DHT22;20158;51.436;-2.742;2023-10-13T04:00:12;17.90;84.40
33863;DHT22;20158;51.436;-2.742;2023-10-13T04:02:47;17.90;84.40
33863;DHT22;20158;51.436;-2.742;2023-10-13T04:05:19;17.90;84.40
33863;DHT22;20158;51.436;-2.742;2023-10-13T04:08:06;17.90;84.40
33863;DHT22;20158;51.436;-2.742;2023-10-13T04:10:56;18.00;84.70
33863;DHT22;20158;51.436;-2.742;2023-10-13T04:13:23;17.90;84.50
33863;DHT22;20158;51.436;-2.742;2023-10-13T04:16:08;18.00;84.60
33863;DHT22;20158;51.436;-2.742;2023-10-13T04:18:49;18.00;84.60
33863;DHT22;20158;51.436;-2.742;2023-10-13T04:21:33;18.00;84.70
33863;DHT22;20158;51.436;-2.742;2023-10-13T04:24:09;18.00;84.70
33863;DHT22;20158;51.436;-2.742;2023-10-13T04:26:50;18.00;84.80
33863;DHT22;20158;51.436;-2.742;2023-10-13T04:29:35;18.00;84.80
33863;DHT22;20158;51.436;-2.742;2023-10-13T04:32:19;18.00;84.80
33863;DHT22;20158;51.436;-2.742;2023-10-13T04:34:59;18.00;84.80
33863;DHT22;20158;51.436;-2.742;2023-10-13T04:37:38;18.00;84.80
33863;DHT22;20158;51.436;-2.742;2023-10-13T04:40:20;18.00;84.90
33863;DHT22;20158;51.436;-2.742;2023-10-13T04:43:01;18.00;84.90
33863;DHT22;20158;51.436;-2.742;2023-10-13T04:45:47;18.00;84.90
33863;DHT22;20158;51.436;-2.742;2023-10-13T04:48:19;18.10;85.10
33863;DHT22;20158;51.436;-2.742;2023-10-13T04:50:49;18.00;85.00
33863;DHT22;20158;51.436;-2.742;2023-10-13T04:53:41;18.00;85.10
33863;DHT22;20158;51.436;-2.742;2023-10-13T04:56:27;18.10;85.20
33863;DHT22;20158;51.436;-2.742;2023-10-13T04:59:13;18.10;85.20
33863;DHT22;20158;51.436;-2.742;2023-10-13T05:02:02;18.10;85.30
33863;DHT22;20158;51.436;-2.742;2023-10-13T05:04:47;18.10;85.30
33863;DHT22;20158;51.436;-2.742;2023-10-13T05:07:32;18.10;85.30
33863;DHT22;20158;51.436;-2.742;2023-10-13T05:10:17;18.10;85.30
33863;DHT22;20158;51.436;-2.742;2023-10-13T05:13:02;18.10;85.40
33863;DHT22;20158;51.436;-2.742;2023-10-13T05:15:49;18.10;85.40
33863;DHT22;20158;51.436;-2.742;2023-10-13T05:18:34;18.20;85.70
33863;DHT22;20158;51.436;-2.742;2023-10-13T05:21:19;18.20;85.70
33863;DHT22;20158;51.436;-2.742;2023-10-13T05:24:04;18.20;85.70
33863;DHT22;20158;51.436;-2.742;2023-10-13T05:26:50;18.20;85.80
33863;DHT22;20158;51.436;-2.742;2023-10-13T05:29:40;18.20;85.80
33863;DHT22;20158;51.436;-2.742;2023-10-13T05:32:25;18.20;85.90
33863;DHT22;20158;51.436;-2.742;2023-10-13T05:35:11;18.20;85.90
33863;DHT22;20158;51.436;-2.742;2023-10-13T05:37:55;18.20;86.00
33863;DHT22;20158;51.436;-2.742;2023-10-13T05:41:01;18.20;86.10
33863;DHT22;20158;51.436;-2.742;2023-10-13T05:43:46;18.20;86.30
33863;DHT22;20158;51.436;-2.742;2023-10-13T05:46:31;18.20;86.20
33863;DHT22;20158;51.436;-2.742;2023-10-13T05:49:15;18.30;86.50
33863;DHT22;20158;51.436;-2.742;2023-10-13T05:51:41;18.20;86.40
33863;DHT22;20158;51.436;-2.742;2023-10-13T05:54:10;18.20;86.50
33863;DHT22;20158;51.436;-2.742;2023-10-13T05:56:48;18.30;86.70
33863;DHT22;20158;51.436;-2.742;2023-10-13T05:59:35;18.30;86.90
33863;DHT22;20158;51.436;-2.742;2023-10-13T06:02:22;18.30;86.80
33863;DHT22;20158;51.436;-2.742;2023-10-13T06:05:08;18.30;86.80
33863;DHT22;20158;51.436;-2.742;2023-10-13T06:07:54;18.30;86.80
33863;DHT22;20158;51.436;-2.742;2023-10-13T06:10:39;18.30;86.80
33863;DHT22;20158;51.436;-2.742;2023-10-13T06:13:24;18.40;87.10
33863;DHT22;20158;51.436;-2.742;2023-10-13T06:16:12;18.40;87.10
33863;DHT22;20158;51.436;-2.742;2023-10-13T06:18:57;18.40;87.10
33863;DHT22;20158;51.436;-2.742;2023-10-13T06:21:43;18.40;87.10
33863;DHT22;20158;51.436;-2.742;2023-10-13T06:24:28;18.40;87.00
33863;DHT22;20158;51.436;-2.742;2023-10-13T06:27:14;18.50;87.10
33863;DHT22;20158;51.436;-2.742;2023-10-13T06:29:59;18.50;87.10
33863;DHT22;20158;51.436;-2.742;2023-10-13T06:32:26;18.50;87.10
33863;DHT22;20158;51.436;-2.742;2023-10-13T06:34:53;18.50;87.10
33863;DHT22;20158;51.436;-2.742;2023-10-13T06:37:24;18.50;87.20
33863;DHT22;20158;51.436;-2.742;2023-10-13T06:39:59;18.50;87.20
33863;DHT22;20158;51.436;-2.742;2023-10-13T06:42:33;18.50;87.10
33863;DHT22;20158;51.436;-2.742;2023-10-13T06:45:09;18.50;87.10
33863;DHT22;20158;51.436;-2.742;2023-10-13T06:47:35;18.50;87.10
33863;DHT22;20158;51.436;-2.742;2023-10-13T06:50:09;18.50;87.10
33863;DHT22;20158;51.436;-2.742;2023-10-13T06:52:42;18.60;87.20
33863;DHT22;20158;51.436;-2.742;2023-10-13T06:55:09;18.60;87.20
33863;DHT22;20158;51.436;-2.742;2023-10-13T06:57:57;18.60;87.20
33863;DHT22;20158;51.436;-2.742;2023-10-13T07:00:29;18.60;87.10
33863;DHT22;20158;51.436;-2.742;2023-10-13T07:03:00;18.60;87.10
33863;DHT22;20158;51.436;-2.742;2023-10-13T07:05:36;18.60;87.10
33863;DHT22;20158;51.436;-2.742;2023-10-13T07:08:05;18.70;87.20
33863;DHT22;20158;51.436;-2.742;2023-10-13T07:10:32;18.70;87.20
33863;DHT22;20158;51.436;-2.742;2023-10-13T07:13:11;18.70;87.10
33863;DHT22;20158;51.436;-2.742;2023-10-13T07:15:42;18.80;87.10
33863;DHT22;20158;51.436;-2.742;2023-10-13T07:18:15;18.80;87.00
33863;DHT22;20158;51.436;-2.742;2023-10-13T07:20:43;18.80;86.90
33863;DHT22;20158;51.436;-2.742;2023-10-13T07:23:13;18.90;86.90
33863;DHT22;20158;51.436;-2.742;2023-10-13T07:25:56;18.90;86.80
33863;DHT22;20158;51.436;-2.742;2023-10-13T07:28:29;18.90;86.70
33863;DHT22;20158;51.436;-2.742;2023-10-13T07:31:03;19.00;86.70
33863;DHT22;20158;51.436;-2.742;2023-10-13T07:33:29;19.00;86.60
33863;DHT22;20158;51.436;-2.742;2023-10-13T07:36:02;19.10;86.70
33863;DHT22;20158;51.436;-2.742;2023-10-13T07:38:39;19.10;86.60
33863;DHT22;20158;51.436;-2.742;2023-10-13T07:41:08;19.10;86.40
33863;DHT22;20158;51.436;-2.742;2023-10-13T07:43:36;19.20;86.40
33863;DHT22;20158;51.436;-2.742;2023-10-13T07:46:05;19.20;86.20
33863;DHT22;20158;51.436;-2.742;2023-10-13T07:48:38;19.30;86.20
33863;DHT22;20158;51.436;-2.742;2023-10-13T07:51:08;19.30;86.00
33863;DHT22;20158;51.436;-2.742;2023-10-13T07:53:42;19.40;86.00
33863;DHT22;20158;51.436;-2.742;2023-10-13T07:56:10;19.40;85.80
33863;DHT22;20158;51.436;-2.742;2023-10-13T07:58:38;19.40;85.70
33863;DHT22;20158;51.436;-2.742;2023-10-13T08:01:13;19.50;85.70
33863;DHT22;20158;51.436;-2.742;2023-10-13T08:03:47;19.50;85.50
33863;DHT22;20158;51.436;-2.742;2023-10-13T08:06:15;19.60;85.60
33863;DHT22;20158;51.436;-2.742;2023-10-13T08:08:42;19.60;85.50
33863;DHT22;20158;51.436;-2.742;2023-10-13T08:11:14;19.60;85.40
33863;DHT22;20158;51.436;-2.742;2023-10-13T08:13:54;19.70;85.40
33863;DHT22;20158;51.436;-2.742;2023-10-13T08:16:21;19.70;85.20
33863;DHT22;20158;51.436;-2.742;2023-10-13T08:18:52;19.70;85.10
33863;DHT22;20158;51.436;-2.742;2023-10-13T08:21:21;19.80;85.10
33863;DHT22;20158;51.436;-2.742;2023-10-13T08:23:50;19.80;85.00
33863;DHT22;20158;51.436;-2.742;2023-10-13T08:26:23;19.80;84.80
33863;DHT22;20158;51.436;-2.742;2023-10-13T08:29:04;19.90;84.80
33863;DHT22;20158;51.436;-2.742;2023-10-13T08:31:44;19.90;84.60
33863;DHT22;20158;51.436;-2.742;2023-10-13T08:34:31;19.90;84.50
33863;DHT22;20158;51.436;-2.742;2023-10-13T08:37:10;19.90;84.30
33863;DHT22;20158;51.436;-2.742;2023-10-13T08:39:58;19.90;84.20
33863;DHT22;20158;51.436;-2.742;2023-10-13T08:42:32;19.90;84.10
33863;DHT22;20158;51.436;-2.742;2023-10-13T08:45:11;19.90;84.10
33863;DHT22;20158;51.436;-2.742;2023-10-13T08:47:50;19.90;84.00
33863;DHT22;20158;51.436;-2.742;2023-10-13T08:50:36;19.90;83.90
33863;DHT22;20158;51.436;-2.742;2023-10-13T08:53:28;20.00;84.00
33863;DHT22;20158;51.436;-2.742;2023-10-13T08:56:02;20.10;83.90
33863;DHT22;20158;51.436;-2.742;2023-10-13T08:58:46;20.10;83.80
33863;DHT22;20158;51.436;-2.742;2023-10-13T09:04:04;20.10;83.60
33863;DHT22;20158;51.436;-2.742;2023-10-13T09:06:51;20.10;83.50
33863;DHT22;20158;51.436;-2.742;2023-10-13T09:09:30;20.10;83.40
33863;DHT22;20158;51.436;-2.742;2023-10-13T09:12:14;20.10;83.30
33863;DHT22;20158;51.436;-2.742;2023-10-13T09:14:41;20.10;83.20
33863;DHT22;20158;51.436;-2.742;2023-10-13T09:17:12;20.10;83.20
33863;DHT22;20158;51.436;-2.742;2023-10-13T09:20:00;20.10;83.20
33863;DHT22;20158;51.436;-2.742;2023-10-13T09:22:45;20.10;83.10
33863;DHT22;20158;51.436;-2.742;2023-10-13T09:25:23;20.00;82.90
33863;DHT22;20158;51.436;-2.742;2023-10-13T09:27:49;20.00;82.80
33863;DHT22;20158;51.436;-2.742;2023-10-13T09:30:19;20.10;83.00
33863;DHT22;20158;51.436;-2.742;2023-10-13T09:32:58;20.10;82.90
33863;DHT22;20158;51.436;-2.742;2023-10-13T09:35:28;20.10;82.80
33863;DHT22;20158;51.436;-2.742;2023-10-13T09:37:58;20.10;83.30
33863;DHT22;20158;51.436;-2.742;2023-10-13T09:40:24;20.10;82.70
33863;DHT22;20158;51.436;-2.742;2023-10-13T09:42:52;20.10;82.60
33863;DHT22;20158;51.436;-2.742;2023-10-13T09:45:31;20.20;82.70
33863;DHT22;20158;51.436;-2.742;2023-10-13T09:48:12;20.20;82.70
33863;DHT22;20158;51.436;-2.742;2023-10-13T09:50:48;20.20;82.60
33863;DHT22;20158;51.436;-2.742;2023-10-13T09:53:18;20.20;82.60
33863;DHT22;20158;51.436;-2.742;2023-10-13T09:55:48;20.30;82.70
33863;DHT22;20158;51.436;-2.742;2023-10-13T09:58:17;20.40;82.70
33863;DHT22;20158;51.436;-2.742;2023-10-13T10:00:50;20.50;82.60
33863;DHT22;20158;51.436;-2.742;2023-10-13T10:03:45;20.70;82.50
33863;DHT22;20158;51.436;-2.742;2023-10-13T10:06:33;20.80;82.20
33863;DHT22;20158;51.436;-2.742;2023-10-13T10:09:09;21.00;82.30
33863;DHT22;20158;51.436;-2.742;2023-10-13T10:11:55;21.00;82.00
33863;DHT22;20158;51.436;-2.742;2023-10-13T10:15:36;21.20;82.10
33863;DHT22;20158;51.436;-2.742;2023-10-13T10:17:41;21.20;81.80
33863;DHT22;20158;51.436;-2.742;2023-10-13T10:20:09;21.20;81.70
33863;DHT22;20158;51.436;-2.742;2023-10-13T10:22:59;21.30;81.80
33863;DHT22;20158;51.436;-2.742;2023-10-13T10:25:32;21.20;81.50
33863;DHT22;20158;51.436;-2.742;2023-10-13T10:28:06;21.20;81.40
33863;DHT22;20158;51.436;-2.742;2023-10-13T10:30:37;21.20;81.40
33863;DHT22;20158;51.436;-2.742;2023-10-13T10:33:08;21.20;81.40
33863;DHT22;20158;51.436;-2.742;2023-10-13T10:36:00;21.20;81.40
33863;DHT22;20158;51.436;-2.742;2023-10-13T10:38:27;21.20;81.30
33863;DHT22;20158;51.436;-2.742;2023-10-13T10:40:57;21.30;81.40
33863;DHT22;20158;51.436;-2.742;2023-10-13T10:43:39;21.30;81.30
33863;DHT22;20158;51.436;-2.742;2023-10-13T10:48:38;21.40;81.20
33863;DHT22;20158;51.436;-2.742;2023-10-13T10:51:09;21.50;81.20
33863;DHT22;20158;51.436;-2.742;2023-10-13T10:53:51;21.60;81.20
33863;DHT22;20158;51.436;-2.742;2023-10-13T10:56:25;21.60;80.90
33863;DHT22;20158;51.436;-2.742;2023-10-13T10:59:04;21.80;80.90
33863;DHT22;20158;51.436;-2.742;2023-10-13T11:01:32;21.90;80.80
33863;DHT22;20158;51.436;-2.742;2023-10-13T11:04:07;22.00;80.70
33863;DHT22;20158;51.436;-2.742;2023-10-13T11:06:37;22.10;80.50
33863;DHT22;20158;51.436;-2.742;2023-10-13T11:09:12;22.10;80.30
33863;DHT22;20158;51.436;-2.742;2023-10-13T11:15:05;22.20;80.10
33863;DHT22;20158;51.436;-2.742;2023-10-13T11:17:51;22.30;80.10
33863;DHT22;20158;51.436;-2.742;2023-10-13T11:20:20;22.30;79.90
33863;DHT22;20158;51.436;-2.742;2023-10-13T11:23:15;22.40;80.10
33863;DHT22;20158;51.436;-2.742;2023-10-13T11:25:41;22.40;80.00
33863;DHT22;20158;51.436;-2.742;2023-10-13T11:28:17;22.40;79.80
33863;DHT22;20158;51.436;-2.742;2023-10-13T11:30:46;22.50;79.80
33863;DHT22;20158;51.436;-2.742;2023-10-13T11:33:33;22.50;79.70
33863;DHT22;20158;51.436;-2.742;2023-10-13T11:35:59;22.60;79.60
33863;DHT22;20158;51.436;-2.742;2023-10-13T11:38:33;22.60;79.30
33863;DHT22;20158;51.436;-2.742;2023-10-13T11:41:16;22.70;79.10
33863;DHT22;20158;51.436;-2.742;2023-10-13T11:43:44;22.80;79.10
33863;DHT22;20158;51.436;-2.742;2023-10-13T11:46:26;22.90;79.00
33863;DHT22;20158;51.436;-2.742;2023-10-13T11:49:06;23.00;78.80
33863;DHT22;20158;51.436;-2.742;2023-10-13T11:51:49;23.10;78.70
33863;DHT22;20158;51.436;-2.742;2023-10-13T11:54:19;23.20;78.50
33863;DHT22;20158;51.436;-2.742;2023-10-13T11:56:48;23.20;78.30
33863;DHT22;20158;51.436;-2.742;2023-10-13T11:59:14;23.30;78.30
33863;DHT22;20158;51.436;-2.742;2023-10-13T12:04:29;23.30;77.80
33863;DHT22;20158;51.436;-2.742;2023-10-13T12:07:18;23.30;77.70
33863;DHT22;20158;51.436;-2.742;2023-10-13T12:09:51;23.30;77.60
33863;DHT22;20158;51.436;-2.742;2023-10-13T12:12:30;23.30;77.40
33863;DHT22;20158;51.436;-2.742;2023-10-13T12:15:06;23.30;77.20
33863;DHT22;20158;51.436;-2.742;2023-10-13T12:17:35;23.20;77.10
33863;DHT22;20158;51.436;-2.742;2023-10-13T12:20:06;23.20;77.10
33863;DHT22;20158;51.436;-2.742;2023-10-13T12:22:36;23.20;77.10
33863;DHT22;20158;51.436;-2.742;2023-10-13T12:25:09;23.10;76.90
33863;DHT22;20158;51.436;-2.742;2023-10-13T12:27:54;23.10;76.90
33863;DHT22;20158;51.436;-2.742;2023-10-13T12:30:24;23.10;76.90
33863;DHT22;20158;51.436;-2.742;2023-10-13T12:33:15;23.20;77.00
33863;DHT22;20158;51.436;-2.742;2023-10-13T12:36:00;23.20;76.90
33863;DHT22;20158;51.436;-2.742;2023-10-13T12:38:36;23.30;76.80
33863;DHT22;20158;51.436;-2.742;2023-10-13T12:41:16;23.30;76.70
33863;DHT22;20158;51.436;-2.742;2023-10-13T12:44:01;23.40;76.60
33863;DHT22;20158;51.436;-2.742;2023-10-13T12:46:47;23.40;76.50
33863;DHT22;20158;51.436;-2.742;2023-10-13T12:49:33;23.40;76.50
33863;DHT22;20158;51.436;-2.742;2023-10-13T12:52:09;23.40;76.50
33863;DHT22;20158;51.436;-2.742;2023-10-13T12:54:42;23.40;76.30
33863;DHT22;20158;51.436;-2.742;2023-10-13T12:57:14;23.40;76.30
33863;DHT22;20158;51.436;-2.742;2023-10-13T12:59:42;23.30;76.20
33863;DHT22;20158;51.436;-2.742;2023-10-13T13:02:08;23.30;76.20
33863;DHT22;20158;51.436;-2.742;2023-10-13T13:04:41;23.20;76.00
33863;DHT22;20158;51.436;-2.742;2023-10-13T13:07:10;23.20;76.00
33863;DHT22;20158;51.436;-2.742;2023-10-13T13:09:42;23.10;75.90
33863;DHT22;20158;51.436;-2.742;2023-10-13T13:12:09;23.00;75.90
33863;DHT22;20158;51.436;-2.742;2023-10-13T13:14:39;23.00;76.00
33863;DHT22;20158;51.436;-2.742;2023-10-13T13:17:09;22.90;75.90
33863;DHT22;20158;51.436;-2.742;2023-10-13T13:19:36;22.80;75.90
33863;DHT22;20158;51.436;-2.742;2023-10-13T13:22:09;22.80;76.10
33863;DHT22;20158;51.436;-2.742;2023-10-13T13:24:42;22.70;76.10
33863;DHT22;20158;51.436;-2.742;2023-10-13T13:27:13;22.70;76.20
33863;DHT22;20158;51.436;-2.742;2023-10-13T13:29:45;22.80;76.50
33863;DHT22;20158;51.436;-2.742;2023-10-13T13:32:12;22.80;76.40
33863;DHT22;20158;51.436;-2.742;2023-10-13T13:35:04;22.80;76.40
33863;DHT22;20158;51.436;-2.742;2023-10-13T13:37:34;22.80;76.40
33863;DHT22;20158;51.436;-2.742;2023-10-13T13:40:03;22.80;76.40
33863;DHT22;20158;51.436;-2.742;2023-10-13T13:42:44;22.70;76.30
33863;DHT22;20158;51.436;-2.742;2023-10-13T13:45:15;22.70;76.30
33863;DHT22;20158;51.436;-2.742;2023-10-13T13:47:54;22.70;76.40
33863;DHT22;20158;51.436;-2.742;2023-10-13T13:50:21;22.70;76.50
33863;DHT22;20158;51.436;-2.742;2023-10-13T13:52:52;22.60;76.40
33863;DHT22;20158;51.436;-2.742;2023-10-13T13:55:20;22.50;76.30
33863;DHT22;20158;51.436;-2.742;2023-10-13T13:57:46;22.50;76.50
33863;DHT22;20158;51.436;-2.742;2023-10-13T14:00:13;22.40;76.40
33863;DHT22;20158;51.436;-2.742;2023-10-13T14:02:43;22.30;76.40
33863;DHT22;20158;51.436;-2.742;2023-10-13T14:05:14;22.20;76.50
33863;DHT22;20158;51.436;-2.742;2023-10-13T14:07:45;22.10;76.60
33863;DHT22;20158;51.436;-2.742;2023-10-13T14:10:21;22.10;76.80
33863;DHT22;20158;51.436;-2.742;2023-10-13T14:13:19;22.00;76.90
33863;DHT22;20158;51.436;-2.742;2023-10-13T14:15:48;21.90;76.90
33863;DHT22;20158;51.436;-2.742;2023-10-13T14:18:14;21.90;77.00
33863;DHT22;20158;51.436;-2.742;2023-10-13T14:20:42;21.90;76.90
33863;DHT22;20158;51.436;-2.742;2023-10-13T14:23:09;21.90;77.00
33863;DHT22;20158;51.436;-2.742;2023-10-13T14:25:40;21.90;77.00
33863;DHT22;20158;51.436;-2.742;2023-10-13T14:28:10;21.80;76.90
33863;DHT22;20158;51.436;-2.742;2023-10-13T14:30:39;21.80;77.00
33863;DHT22;20158;51.436;-2.742;2023-10-13T14:33:06;21.80;77.10
33863;DHT22;20158;51.436;-2.742;2023-10-13T14:35:36;21.70;77.00
33863;DHT22;20158;51.436;-2.742;2023-10-13T14:38:03;21.70;77.10
33863;DHT22;20158;51.436;-2.742;2023-10-13T14:40:29;21.60;77.10
33863;DHT22;20158;51.436;-2.742;2023-10-13T14:42:56;21.60;77.20
33863;DHT22;20158;51.436;-2.742;2023-10-13T14:45:22;21.60;77.20
33863;DHT22;20158;51.436;-2.742;2023-10-13T14:47:48;21.60;77.30
33863;DHT22;20158;51.436;-2.742;2023-10-13T14:50:14;21.60;77.30
33863;DHT22;20158;51.436;-2.742;2023-10-13T14:52:46;21.50;77.10
33863;DHT22;20158;51.436;-2.742;2023-10-13T14:55:12;21.40;76.90
33863;DHT22;20158;51.436;-2.742;2023-10-13T14:57:46;21.40;77.00
33863;DHT22;20158;51.436;-2.742;2023-10-13T15:00:14;21.30;76.90
33863;DHT22;20158;51.436;-2.742;2023-10-13T15:02:40;21.30;77.00
33863;DHT22;20158;51.436;-2.742;2023-10-13T15:05:10;21.20;77.10
33863;DHT22;20158;51.436;-2.742;2023-10-13T15:07:43;21.10;77.00
33863;DHT22;20158;51.436;-2.742;2023-10-13T15:10:12;21.00;77.00
33863;DHT22;20158;51.436;-2.742;2023-10-13T15:12:43;20.90;77.00
33863;DHT22;20158;51.436;-2.742;2023-10-13T15:15:10;20.90;77.20
33863;DHT22;20158;51.436;-2.742;2023-10-13T15:17:47;20.80;77.20
33863;DHT22;20158;51.436;-2.742;2023-10-13T15:20:14;20.70;77.20
33863;DHT22;20158;51.436;-2.742;2023-10-13T15:22:46;20.60;77.20
33863;DHT22;20158;51.436;-2.742;2023-10-13T15:25:15;20.60;77.40
33863;DHT22;20158;51.436;-2.742;2023-10-13T15:28:00;20.50;77.40
33863;DHT22;20158;51.436;-2.742;2023-10-13T15:30:33;20.50;77.50
33863;DHT22;20158;51.436;-2.742;2023-10-13T15:33:11;20.40;77.40
33863;DHT22;20158;51.436;-2.742;2023-10-13T15:35:41;20.30;77.20
33863;DHT22;20158;51.436;-2.742;2023-10-13T15:38:11;20.30;77.20
33863;DHT22;20158;51.436;-2.742;2023-10-13T15:40:44;20.20;77.10
33863;DHT22;20158;51.436;-2.742;2023-10-13T15:43:11;20.20;77.00
33863;DHT22;20158;51.436;-2.742;2023-10-13T15:45:38;20.10;76.90
33863;DHT22;20158;51.436;-2.742;2023-10-13T15:48:09;20.10;76.90
33863;DHT22;20158;51.436;-2.742;2023-10-13T15:50:38;20.00;76.80
33863;DHT22;20158;51.436;-2.742;2023-10-13T15:53:08;19.90;76.60
33863;DHT22;20158;51.436;-2.742;2023-10-13T15:55:38;19.80;76.40
33863;DHT22;20158;51.436;-2.742;2023-10-13T15:58:05;19.80;76.40
33863;DHT22;20158;51.436;-2.742;2023-10-13T16:00:35;19.70;76.20
33863;DHT22;20158;51.436;-2.742;2023-10-13T16:03:05;19.60;76.20
33863;DHT22;20158;51.436;-2.742;2023-10-13T16:05:38;19.50;76.20
33863;DHT22;20158;51.436;-2.742;2023-10-13T16:08:10;19.40;76.00
33863;DHT22;20158;51.436;-2.742;2023-10-13T16:10:39;19.30;75.80
33863;DHT22;20158;51.436;-2.742;2023-10-13T16:13:05;19.20;75.70